sensor_id;sensor_type;location;lat;lon;timestamp;temperature;humidity
36416;DHT22;22447;44.530;18.620;2022-11-06T00:01:23;10.20;99.90
36416;DHT22;22447;44.530;18.620;2022-11-06T00:03:53;10.10;99.90
36416;DHT22;22447;44.530;18.620;2022-11-06T00:06:19;10.10;99.90
36416;DHT22;22447;44.530;18.620;2022-11-06T00:09:06;10.10;99.90
36416;DHT22;22447;44.530;18.620;2022-11-06T00:11:32;10.10;99.90
36416;DHT22;22447;44.530;18.620;2022-11-06T00:13:59;10.10;99.90
36416;DHT22;22447;44.530;18.620;2022-11-06T00:16:25;10.10;99.90
36416;DHT22;22447;44.530;18.620;2022-11-06T00:18:51;10.10;99.90
36416;DHT22;22447;44.530;18.620;2022-11-06T00:21:24;10.10;99.90
36416;DHT22;22447;44.530;18.620;2022-11-06T00:23:51;10.20;99.90
36416;DHT22;22447;44.530;18.620;2022-11-06T00:26:19;10.20;99.90
36416;DHT22;22447;44.530;18.620;2022-11-06T00:28:46;10.20;99.90
36416;DHT22;22447;44.530;18.620;2022-11-06T00:31:17;10.10;99.90
36416;DHT22;22447;44.530;18.620;2022-11-06T00:33:43;10.20;99.90
36416;DHT22;22447;44.530;18.620;2022-11-06T00:36:11;10.20;99.90
36416;DHT22;22447;44.530;18.620;2022-11-06T00:38:37;10.40;99.90
36416;DHT22;22447;44.530;18.620;2022-11-06T00:41:07;10.30;99.90
36416;DHT22;22447;44.530;18.620;2022-11-06T00:43:34;10.20;99.90
36416;DHT22;22447;44.530;18.620;2022-11-06T00:46:12;10.20;99.90
36416;DHT22;22447;44.530;18.620;2022-11-06T00:48:39;10.20;99.90
36416;DHT22;22447;44.530;18.620;2022-11-06T00:51:10;10.10;99.90
36416;DHT22;22447;44.530;18.620;2022-11-06T00:53:36;10.20;99.90
36416;DHT22;22447;44.530;18.620;2022-11-06T00:56:12;10.20;99.90
36416;DHT22;22447;44.530;18.620;2022-11-06T00:58:38;10.10;99.90
36416;DHT22;22447;44.530;18.620;2022-11-06T01:01:24;10.20;99.90
36416;DHT22;22447;44.530;18.620;2022-11-06T01:03:59;10.20;99.90
36416;DHT22;22447;44.530;18.620;2022-11-06T01:06:33;10.30;99.90
36416;DHT22;22447;44.530;18.620;2022-11-06T01:08:59;10.20;99.90
36416;DHT22;22447;44.530;18.620;2022-11-06T01:11:37;10.20;99.90
36416;DHT22;22447;44.530;18.620;2022-11-06T01:14:04;10.20;99.90
36416;DHT22;22447;44.530;18.620;2022-11-06T01:16:31;10.20;99.90
36416;DHT22;22447;44.530;18.620;2022-11-06T01:18:57;10.10;99.90
36416;DHT22;22447;44.530;18.620;2022-11-06T01:21:26;10.20;99.90
36416;DHT22;22447;44.530;18.620;2022-11-06T01:23:54;10.20;99.90
36416;DHT22;22447;44.530;18.620;2022-11-06T01:26:21;10.20;99.90
36416;DHT22;22447;44.530;18.620;2022-11-06T01:28:47;10.30;99.90
36416;DHT22;22447;44.530;18.620;2022-11-06T01:31:16;10.30;99.90
36416;DHT22;22447;44.530;18.620;2022-11-06T01:33:42;10.40;99.90
36416;DHT22;22447;44.530;18.620;2022-11-06T01:36:09;10.30;99.90
36416;DHT22;22447;44.530;18.620;2022-11-06T01:38:39;10.30;99.90
36416;DHT22;22447;44.530;18.620;2022-11-06T01:41:04;10.30;99.90
36416;DHT22;22447;44.530;18.620;2022-11-06T01:46:21;10.20;99.90
36416;DHT22;22447;44.530;18.620;2022-11-06T01:48:52;10.20;99.90
36416;DHT22;22447;44.530;18.620;2022-11-06T01:51:21;10.10;99.90
36416;DHT22;22447;44.530;18.620;2022-11-06T01:53:48;10.10;99.90
36416;DHT22;22447;44.530;18.620;2022-11-06T01:56:14;10.10;99.90
36416;DHT22;22447;44.530;18.620;2022-11-06T01:58:43;10.20;99.90
36416;DHT22;22447;44.530;18.620;2022-11-06T02:01:11;10.20;99.90
36416;DHT22;22447;44.530;18.620;2022-11-06T02:03:40;10.30;99.90
36416;DHT22;22447;44.530;18.620;2022-11-06T02:06:08;10.40;99.90
36416;DHT22;22447;44.530;18.620;2022-11-06T02:08:34;10.40;99.90
36416;DHT22;22447;44.530;18.620;2022-11-06T02:11:00;10.30;99.90
36416;DHT22;22447;44.530;18.620;2022-11-06T02:29:32;10.30;99.90
36416;DHT22;22447;44.530;18.620;2022-11-06T02:32:03;10.20;99.90
36416;DHT22;22447;44.530;18.620;2022-11-06T02:34:31;10.20;99.90
36416;DHT22;22447;44.530;18.620;2022-11-06T02:37:03;10.10;99.90
36416;DHT22;22447;44.530;18.620;2022-11-06T02:39:31;10.10;99.90
36416;DHT22;22447;44.530;18.620;2022-11-06T02:41:58;10.10;99.90
36416;DHT22;22447;44.530;18.620;2022-11-06T02:44:27;10.10;99.90
36416;DHT22;22447;44.530;18.620;2022-11-06T02:46:57;10.10;99.90
36416;DHT22;22447;44.530;18.620;2022-11-06T02:49:37;10.20;99.90
36416;DHT22;22447;44.530;18.620;2022-11-06T02:52:12;10.10;99.90
36416;DHT22;22447;44.530;18.620;2022-11-06T02:54:43;10.10;99.90
36416;DHT22;22447;44.530;18.620;2022-11-06T02:57:12;10.10;99.90
36416;DHT22;22447;44.530;18.620;2022-11-06T02:59:45;10.10;99.90
36416;DHT22;22447;44.530;18.620;2022-11-06T03:03:01;10.10;99.90
36416;DHT22;22447;44.530;18.620;2022-11-06T03:05:32;10.10;99.90
36416;DHT22;22447;44.530;18.620;2022-11-06T03:10:42;10.10;99.90
36416;DHT22;22447;44.530;18.620;2022-11-06T03:13:27;10.10;99.90
36416;DHT22;22447;44.530;18.620;2022-11-06T03:15:59;10.10;99.90
36416;DHT22;22447;44.530;18.620;2022-11-06T03:19:01;10.10;99.90
36416;DHT22;22447;44.530;18.620;2022-11-06T03:21:42;10.10;99.90
36416;DHT22;22447;44.530;18.620;2022-11-06T03:24:16;10.10;99.90
36416;DHT22;22447;44.530;18.620;2022-11-06T03:26:47;10.10;99.90
36416;DHT22;22447;44.530;18.620;2022-11-06T03:29:36;10.10;99.90
36416;DHT22;22447;44.530;18.620;2022-11-06T03:34:47;10.10;99.90
36416;DHT22;22447;44.530;18.620;2022-11-06T03:37:28;10.10;99.90
36416;DHT22;22447;44.530;18.620;2022-11-06T03:39:58;10.20;99.90
36416;DHT22;22447;44.530;18.620;2022-11-06T03:42:29;10.30;99.90
36416;DHT22;22447;44.530;18.620;2022-11-06T03:44:58;10.20;99.90
36416;DHT22;22447;44.530;18.620;2022-11-06T03:47:35;10.20;99.90
36416;DHT22;22447;44.530;18.620;2022-11-06T03:52:57;10.20;99.90
36416;DHT22;22447;44.530;18.620;2022-11-06T03:55:29;10.10;99.90
36416;DHT22;22447;44.530;18.620;2022-11-06T03:58:04;10.10;99.90
36416;DHT22;22447;44.530;18.620;2022-11-06T04:00:34;10.20;99.90
36416;DHT22;22447;44.530;18.620;2022-11-06T04:03:05;10.30;99.90
36416;DHT22;22447;44.530;18.620;2022-11-06T04:05:36;10.30;99.90
36416;DHT22;22447;44.530;18.620;2022-11-06T04:08:05;10.30;99.90
36416;DHT22;22447;44.530;18.620;2022-11-06T04:10:55;10.30;99.90
36416;DHT22;22447;44.530;18.620;2022-11-06T04:13:41;10.10;99.90
36416;DHT22;22447;44.530;18.620;2022-11-06T04:16:24;10.10;99.90
36416;DHT22;22447;44.530;18.620;2022-11-06T04:18:51;10.10;99.90
36416;DHT22;22447;44.530;18.620;2022-11-06T04:21:24;10.20;99.90
36416;DHT22;22447;44.530;18.620;2022-11-06T04:26:45;10.20;99.90
36416;DHT22;22447;44.530;18.620;2022-11-06T04:29:35;10.20;99.90
36416;DHT22;22447;44.530;18.620;2022-11-06T04:32:35;10.30;99.90
36416;DHT22;22447;44.530;18.620;2022-11-06T04:37:59;10.10;99.90
36416;DHT22;22447;44.530;18.620;2022-11-06T04:45:51;10.20;99.90
36416;DHT22;22447;44.530;18.620;2022-11-06T04:48:18;10.20;99.90
36416;DHT22;22447;44.530;18.620;2022-11-06T04:50:51;10.30;99.90
36416;DHT22;22447;44.530;18.620;2022-11-06T04:53:19;10.30;99.90
36416;DHT22;22447;44.530;18.620;2022-11-06T04:55:55;10.20;99.90
36416;DHT22;22447;44.530;18.620;2022-11-06T04:58:24;10.10;99.90
36416;DHT22;22447;44.530;18.620;2022-11-06T05:00:50;10.10;99.90
36416;DHT22;22447;44.530;18.620;2022-11-06T05:03:17;10.10;99.90
36416;DHT22;22447;44.530;18.620;2022-11-06T05:05:43;10.10;99.90
36416;DHT22;22447;44.530;18.620;2022-11-06T05:08:15;10.10;99.90
36416;DHT22;22447;44.530;18.620;2022-11-06T05:10:42;10.10;99.90
36416;DHT22;22447;44.530;18.620;2022-11-06T05:13:08;10.10;99.90
36416;DHT22;22447;44.530;18.620;2022-11-06T05:15:34;10.10;99.90
36416;DHT22;22447;44.530;18.620;2022-11-06T05:18:00;10.10;99.90
36416;DHT22;22447;44.530;18.620;2022-11-06T05:20:26;10.20;99.90
36416;DHT22;22447;44.530;18.620;2022-11-06T05:22:52;10.20;99.90
36416;DHT22;22447;44.530;18.620;2022-11-06T05:25:31;10.20;99.90
36416;DHT22;22447;44.530;18.620;2022-11-06T05:27:57;10.20;99.90
36416;DHT22;22447;44.530;18.620;2022-11-06T05:30:24;10.10;99.90
36416;DHT22;22447;44.530;18.620;2022-11-06T05:32:50;10.10;99.90
36416;DHT22;22447;44.530;18.620;2022-11-06T05:35:17;10.10;99.90
36416;DHT22;22447;44.530;18.620;2022-11-06T05:37:43;10.20;99.90
36416;DHT22;22447;44.530;18.620;2022-11-06T05:40:09;10.10;99.90
36416;DHT22;22447;44.530;18.620;2022-11-06T05:42:37;10.10;99.90
36416;DHT22;22447;44.530;18.620;2022-11-06T05:45:04;10.10;99.90
36416;DHT22;22447;44.530;18.620;2022-11-06T05:47:30;10.10;99.90
36416;DHT22;22447;44.530;18.620;2022-11-06T05:49:56;10.10;99.90
36416;DHT22;22447;44.530;18.620;2022-11-06T05:52:22;10.10;99.90
36416;DHT22;22447;44.530;18.620;2022-11-06T05:54:48;10.20;99.90
36416;DHT22;22447;44.530;18.620;2022-11-06T05:57:13;10.20;99.90
36416;DHT22;22447;44.530;18.620;2022-11-06T05:59:39;10.20;99.90
36416;DHT22;22447;44.530;18.620;2022-11-06T06:02:05;10.20;99.90
36416;DHT22;22447;44.530;18.620;2022-11-06T06:04:31;10.20;99.90
36416;DHT22;22447;44.530;18.620;2022-11-06T06:06:57;10.20;99.90
36416;DHT22;22447;44.530;18.620;2022-11-06T06:09:23;10.20;99.90
36416;DHT22;22447;44.530;18.620;2022-11-06T06:11:50;10.20;99.90
36416;DHT22;22447;44.530;18.620;2022-11-06T06:14:17;10.20;99.90
36416;DHT22;22447;44.530;18.620;2022-11-06T06:16:43;10.30;99.90
36416;DHT22;22447;44.530;18.620;2022-11-06T06:19:09;10.40;99.90
36416;DHT22;22447;44.530;18.620;2022-11-06T06:21:35;10.30;99.90
36416;DHT22;22447;44.530;18.620;2022-11-06T06:24:03;10.30;99.90
36416;DHT22;22447;44.530;18.620;2022-11-06T06:26:29;10.20;99.90
36416;DHT22;22447;44.530;18.620;2022-11-06T06:28:55;10.20;99.90
36416;DHT22;22447;44.530;18.620;2022-11-06T06:31:21;10.20;99.90
36416;DHT22;22447;44.530;18.620;2022-11-06T06:33:47;10.20;99.90
36416;DHT22;22447;44.530;18.620;2022-11-06T06:36:13;10.30;99.90
36416;DHT22;22447;44.530;18.620;2022-11-06T06:38:39;10.30;99.90
36416;DHT22;22447;44.530;18.620;2022-11-06T06:41:07;10.40;99.90
36416;DHT22;22447;44.530;18.620;2022-11-06T06:43:33;10.30;99.90
36416;DHT22;22447;44.530;18.620;2022-11-06T06:46:04;10.40;99.90
36416;DHT22;22447;44.530;18.620;2022-11-06T06:48:31;10.50;99.90
36416;DHT22;22447;44.530;18.620;2022-11-06T06:50:58;10.50;99.90
36416;DHT22;22447;44.530;18.620;2022-11-06T06:53:25;10.50;99.90
36416;DHT22;22447;44.530;18.620;2022-11-06T06:55:51;10.60;99.90
36416;DHT22;22447;44.530;18.620;2022-11-06T06:58:17;10.50;99.90
36416;DHT22;22447;44.530;18.620;2022-11-06T07:00:43;10.60;99.90
36416;DHT22;22447;44.530;18.620;2022-11-06T07:03:09;10.50;99.90
36416;DHT22;22447;44.530;18.620;2022-11-06T07:05:35;10.50;99.90
36416;DHT22;22447;44.530;18.620;2022-11-06T07:08:01;10.50;99.90
36416;DHT22;22447;44.530;18.620;2022-11-06T07:10:29;10.50;99.90
36416;DHT22;22447;44.530;18.620;2022-11-06T07:12:55;10.50;99.90
36416;DHT22;22447;44.530;18.620;2022-11-06T07:15:21;10.50;99.90
36416;DHT22;22447;44.530;18.620;2022-11-06T07:17:46;10.50;99.90
36416;DHT22;22447;44.530;18.620;2022-11-06T07:20:12;10.50;99.90
36416;DHT22;22447;44.530;18.620;2022-11-06T07:22:39;10.50;99.90
36416;DHT22;22447;44.530;18.620;2022-11-06T07:25:05;10.50;99.90
36416;DHT22;22447;44.530;18.620;2022-11-06T07:27:31;10.40;99.90
36416;DHT22;22447;44.530;18.620;2022-11-06T07:29:58;10.50;99.90
36416;DHT22;22447;44.530;18.620;2022-11-06T07:32:25;10.50;99.90
36416;DHT22;22447;44.530;18.620;2022-11-06T07:34:51;10.50;99.90
36416;DHT22;22447;44.530;18.620;2022-11-06T07:37:17;10.60;99.90
36416;DHT22;22447;44.530;18.620;2022-11-06T07:39:43;10.60;99.90
36416;DHT22;22447;44.530;18.620;2022-11-06T07:42:09;10.70;99.90
36416;DHT22;22447;44.530;18.620;2022-11-06T07:44:36;10.70;99.90
36416;DHT22;22447;44.530;18.620;2022-11-06T07:47:01;10.70;99.90
36416;DHT22;22447;44.530;18.620;2022-11-06T07:49:27;10.70;99.90
36416;DHT22;22447;44.530;18.620;2022-11-06T07:51:53;10.70;99.90
36416;DHT22;22447;44.530;18.620;2022-11-06T07:54:19;10.80;99.90
36416;DHT22;22447;44.530;18.620;2022-11-06T07:56:45;10.80;99.90
36416;DHT22;22447;44.530;18.620;2022-11-06T07:59:11;10.80;99.90
36416;DHT22;22447;44.530;18.620;2022-11-06T08:01:37;10.80;99.90
36416;DHT22;22447;44.530;18.620;2022-11-06T08:04:03;10.80;99.90
36416;DHT22;22447;44.530;18.620;2022-11-06T08:06:29;10.80;99.90
36416;DHT22;22447;44.530;18.620;2022-11-06T08:08:54;10.80;99.90
36416;DHT22;22447;44.530;18.620;2022-11-06T08:11:20;10.80;99.90
36416;DHT22;22447;44.530;18.620;2022-11-06T08:13:46;10.80;99.90
36416;DHT22;22447;44.530;18.620;2022-11-06T08:16:13;10.80;99.90
36416;DHT22;22447;44.530;18.620;2022-11-06T08:18:40;10.80;99.90
36416;DHT22;22447;44.530;18.620;2022-11-06T08:21:06;10.80;99.90
36416;DHT22;22447;44.530;18.620;2022-11-06T08:23:34;10.90;99.90
36416;DHT22;22447;44.530;18.620;2022-11-06T08:26:02;10.80;99.90
36416;DHT22;22447;44.530;18.620;2022-11-06T08:28:28;10.90;99.90
36416;DHT22;22447;44.530;18.620;2022-11-06T08:30:55;10.80;99.90
36416;DHT22;22447;44.530;18.620;2022-11-06T08:33:21;10.80;99.90
36416;DHT22;22447;44.530;18.620;2022-11-06T08:35:47;10.70;99.90
36416;DHT22;22447;44.530;18.620;2022-11-06T08:38:14;10.80;99.90
36416;DHT22;22447;44.530;18.620;2022-11-06T08:40:40;10.70;99.90
36416;DHT22;22447;44.530;18.620;2022-11-06T08:43:09;10.80;99.90
36416;DHT22;22447;44.530;18.620;2022-11-06T08:45:36;10.80;99.90
36416;DHT22;22447;44.530;18.620;2022-11-06T08:48:03;10.80;99.90
36416;DHT22;22447;44.530;18.620;2022-11-06T08:50:30;10.80;99.90
36416;DHT22;22447;44.530;18.620;2022-11-06T08:52:57;10.80;99.90
36416;DHT22;22447;44.530;18.620;2022-11-06T08:55:24;10.70;99.90
36416;DHT22;22447;44.530;18.620;2022-11-06T08:57:50;10.70;99.90
36416;DHT22;22447;44.530;18.620;2022-11-06T09:00:16;10.70;99.90
36416;DHT22;22447;44.530;18.620;2022-11-06T09:02:42;10.60;99.90
36416;DHT22;22447;44.530;18.620;2022-11-06T09:05:08;10.50;99.90
36416;DHT22;22447;44.530;18.620;2022-11-06T09:07:34;10.70;99.90
36416;DHT22;22447;44.530;18.620;2022-11-06T09:09:59;10.70;99.90
36416;DHT22;22447;44.530;18.620;2022-11-06T09:12:25;10.60;99.90
36416;DHT22;22447;44.530;18.620;2022-11-06T09:14:51;10.60;99.90
36416;DHT22;22447;44.530;18.620;2022-11-06T09:17:17;10.60;99.90
36416;DHT22;22447;44.530;18.620;2022-11-06T09:19:51;10.60;99.90
36416;DHT22;22447;44.530;18.620;2022-11-06T09:22:18;10.80;99.90
36416;DHT22;22447;44.530;18.620;2022-11-06T09:24:44;10.70;99.90
36416;DHT22;22447;44.530;18.620;2022-11-06T09:27:11;10.70;99.90
36416;DHT22;22447;44.530;18.620;2022-11-06T09:29:37;10.70;99.90
36416;DHT22;22447;44.530;18.620;2022-11-06T09:32:09;10.70;99.90
36416;DHT22;22447;44.530;18.620;2022-11-06T09:34:35;10.70;99.90
36416;DHT22;22447;44.530;18.620;2022-11-06T09:37:01;10.70;99.90
36416;DHT22;22447;44.530;18.620;2022-11-06T09:39:27;10.70;99.90
36416;DHT22;22447;44.530;18.620;2022-11-06T09:41:54;10.80;99.90
36416;DHT22;22447;44.530;18.620;2022-11-06T09:44:39;10.80;99.90
36416;DHT22;22447;44.530;18.620;2022-11-06T09:47:14;10.70;99.90
36416;DHT22;22447;44.530;18.620;2022-11-06T09:52:19;10.80;99.90
36416;DHT22;22447;44.530;18.620;2022-11-06T09:54:56;10.80;99.90
36416;DHT22;22447;44.530;18.620;2022-11-06T09:57:39;10.80;99.90
36416;DHT22;22447;44.530;18.620;2022-11-06T10:00:11;10.90;99.90
36416;DHT22;22447;44.530;18.620;2022-11-06T10:02:48;10.90;99.90
36416;DHT22;22447;44.530;18.620;2022-11-06T10:05:27;11.00;99.90
36416;DHT22;22447;44.530;18.620;2022-11-06T10:07:57;11.00;99.90
36416;DHT22;22447;44.530;18.620;2022-11-06T10:10:47;11.00;99.90
36416;DHT22;22447;44.530;18.620;2022-11-06T10:13:37;10.90;99.90
36416;DHT22;22447;44.530;18.620;2022-11-06T10:16:28;10.90;99.90
36416;DHT22;22447;44.530;18.620;2022-11-06T10:24:43;10.70;99.90
36416;DHT22;22447;44.530;18.620;2022-11-06T10:27:16;10.80;99.90
36416;DHT22;22447;44.530;18.620;2022-11-06T10:30:16;10.80;99.90
36416;DHT22;22447;44.530;18.620;2022-11-06T10:33:00;10.80;99.90
36416;DHT22;22447;44.530;18.620;2022-11-06T10:35:53;10.90;99.90
36416;DHT22;22447;44.530;18.620;2022-11-06T10:38:28;10.70;99.90
36416;DHT22;22447;44.530;18.620;2022-11-06T10:40:57;10.70;99.90
36416;DHT22;22447;44.530;18.620;2022-11-06T10:43:34;10.80;99.90
36416;DHT22;22447;44.530;18.620;2022-11-06T10:46:10;10.70;99.90
36416;DHT22;22447;44.530;18.620;2022-11-06T10:48:41;10.70;99.90
36416;DHT22;22447;44.530;18.620;2022-11-06T10:56:53;10.90;99.90
36416;DHT22;22447;44.530;18.620;2022-11-06T10:59:23;10.90;99.90
36416;DHT22;22447;44.530;18.620;2022-11-06T11:01:49;10.90;99.90
36416;DHT22;22447;44.530;18.620;2022-11-06T11:04:15;10.80;99.90
36416;DHT22;22447;44.530;18.620;2022-11-06T11:06:41;10.80;99.90
36416;DHT22;22447;44.530;18.620;2022-11-06T11:09:33;10.80;99.90
36416;DHT22;22447;44.530;18.620;2022-11-06T11:11:59;10.80;99.90
36416;DHT22;22447;44.530;18.620;2022-11-06T11:14:30;10.90;99.90
36416;DHT22;22447;44.530;18.620;2022-11-06T11:17:00;11.00;99.90
36416;DHT22;22447;44.530;18.620;2022-11-06T11:19:38;10.90;99.90
36416;DHT22;22447;44.530;18.620;2022-11-06T11:25:03;10.80;99.90
36416;DHT22;22447;44.530;18.620;2022-11-06T11:27:41;10.80;99.90
36416;DHT22;22447;44.530;18.620;2022-11-06T11:30:22;10.90;99.90
36416;DHT22;22447;44.530;18.620;2022-11-06T11:32:52;10.80;99.90
36416;DHT22;22447;44.530;18.620;2022-11-06T11:35:22;10.90;99.90
36416;DHT22;22447;44.530;18.620;2022-11-06T11:37:50;10.90;99.90
36416;DHT22;22447;44.530;18.620;2022-11-06T11:40:29;10.90;99.90
36416;DHT22;22447;44.530;18.620;2022-11-06T11:48:26;10.90;99.90
36416;DHT22;22447;44.530;18.620;2022-11-06T11:50:52;10.80;99.90
36416;DHT22;22447;44.530;18.620;2022-11-06T11:53:19;10.90;99.90
36416;DHT22;22447;44.530;18.620;2022-11-06T11:55:49;10.90;99.90
36416;DHT22;22447;44.530;18.620;2022-11-06T12:01:00;11.00;99.90
36416;DHT22;22447;44.530;18.620;2022-11-06T12:03:32;11.00;99.90
36416;DHT22;22447;44.530;18.620;2022-11-06T12:06:16;11.10;99.90
36416;DHT22;22447;44.530;18.620;2022-11-06T12:08:49;11.00;99.90
36416;DHT22;22447;44.530;18.620;2022-11-06T12:11:21;11.00;99.90
36416;DHT22;22447;44.530;18.620;2022-11-06T12:16:59;11.00;99.90
36416;DHT22;22447;44.530;18.620;2022-11-06T12:19:28;11.00;99.90
36416;DHT22;22447;44.530;18.620;2022-11-06T12:21:59;11.00;99.90
36416;DHT22;22447;44.530;18.620;2022-11-06T12:25:33;11.10;99.90
36416;DHT22;22447;44.530;18.620;2022-11-06T12:27:49;11.10;99.90
36416;DHT22;22447;44.530;18.620;2022-11-06T12:30:18;11.10;99.90
36416;DHT22;22447;44.530;18.620;2022-11-06T12:36:03;11.10;99.90
36416;DHT22;22447;44.530;18.620;2022-11-06T12:38:43;11.00;99.90
36416;DHT22;22447;44.530;18.620;2022-11-06T12:43:51;11.00;99.90
36416;DHT22;22447;44.530;18.620;2022-11-06T13:01:10;11.00;99.90
36416;DHT22;22447;44.530;18.620;2022-11-06T13:09:25;11.00;99.90
36416;DHT22;22447;44.530;18.620;2022-11-06T13:14:38;10.90;99.90
36416;DHT22;22447;44.530;18.620;2022-11-06T13:22:57;10.90;99.90
36416;DHT22;22447;44.530;18.620;2022-11-06T13:25:36;11.10;99.90
36416;DHT22;22447;44.530;18.620;2022-11-06T13:30:36;11.00;99.90
36416;DHT22;22447;44.530;18.620;2022-11-06T13:33:25;11.00;99.90
36416;DHT22;22447;44.530;18.620;2022-11-06T13:35:53;10.90;99.90
36416;DHT22;22447;44.530;18.620;2022-11-06T13:38:32;10.80;99.90
36416;DHT22;22447;44.530;18.620;2022-11-06T13:41:04;10.90;99.90
36416;DHT22;22447;44.530;18.620;2022-11-06T13:44:12;11.00;99.90
36416;DHT22;22447;44.530;18.620;2022-11-06T13:46:57;10.90;99.90
36416;DHT22;22447;44.530;18.620;2022-11-06T13:58:00;10.60;99.90
36416;DHT22;22447;44.530;18.620;2022-11-06T14:06:42;10.70;99.90
36416;DHT22;22447;44.530;18.620;2022-11-06T14:09:14;10.70;99.90
36416;DHT22;22447;44.530;18.620;2022-11-06T14:11:43;10.60;99.90
36416;DHT22;22447;44.530;18.620;2022-11-06T14:19:35;10.70;99.90
36416;DHT22;22447;44.530;18.620;2022-11-06T14:24:48;10.70;99.90
36416;DHT22;22447;44.530;18.620;2022-11-06T14:30:01;10.80;99.90
36416;DHT22;22447;44.530;18.620;2022-11-06T14:34:55;10.60;99.90
36416;DHT22;22447;44.530;18.620;2022-11-06T14:42:42;10.70;99.90
36416;DHT22;22447;44.530;18.620;2022-11-06T14:45:20;10.70;99.90
36416;DHT22;22447;44.530;18.620;2022-11-06T14:55:42;10.70;99.90
36416;DHT22;22447;44.530;18.620;2022-11-06T14:58:31;10.70;99.90
36416;DHT22;22447;44.530;18.620;2022-11-06T15:16:36;10.70;99.90
36416;DHT22;22447;44.530;18.620;2022-11-06T15:19:32;10.60;99.90
36416;DHT22;22447;44.530;18.620;2022-11-06T15:22:11;10.60;99.90
36416;DHT22;22447;44.530;18.620;2022-11-06T15:24:54;10.70;99.90
36416;DHT22;22447;44.530;18.620;2022-11-06T15:27:26;10.60;99.90
36416;DHT22;22447;44.530;18.620;2022-11-06T15:29:56;10.50;99.90
36416;DHT22;22447;44.530;18.620;2022-11-06T15:32:34;10.60;99.90
36416;DHT22;22447;44.530;18.620;2022-11-06T15:35:07;10.60;99.90
36416;DHT22;22447;44.530;18.620;2022-11-06T15:37:47;10.60;99.90
36416;DHT22;22447;44.530;18.620;2022-11-06T15:40:41;10.70;99.90
36416;DHT22;22447;44.530;18.620;2022-11-06T15:43:30;10.60;99.90
36416;DHT22;22447;44.530;18.620;2022-11-06T15:48:41;10.50;99.90
36416;DHT22;22447;44.530;18.620;2022-11-06T15:51:26;10.40;99.90
36416;DHT22;22447;44.530;18.620;2022-11-06T15:53:52;10.50;99.90
36416;DHT22;22447;44.530;18.620;2022-11-06T15:56:27;10.40;99.90
36416;DHT22;22447;44.530;18.620;2022-11-06T16:01:33;10.30;99.90
36416;DHT22;22447;44.530;18.620;2022-11-06T16:04:03;10.40;99.90
36416;DHT22;22447;44.530;18.620;2022-11-06T16:06:31;10.40;99.90
36416;DHT22;22447;44.530;18.620;2022-11-06T16:08:58;10.40;99.90
36416;DHT22;22447;44.530;18.620;2022-11-06T16:11:24;10.30;99.90
36416;DHT22;22447;44.530;18.620;2022-11-06T16:13:51;10.20;99.90
36416;DHT22;22447;44.530;18.620;2022-11-06T16:16:39;10.20;99.90
36416;DHT22;22447;44.530;18.620;2022-11-06T16:19:32;10.40;99.90
36416;DHT22;22447;44.530;18.620;2022-11-06T16:22:01;10.40;99.90
36416;DHT22;22447;44.530;18.620;2022-11-06T16:24:32;10.40;99.90
36416;DHT22;22447;44.530;18.620;2022-11-06T16:27:04;10.40;99.90
36416;DHT22;22447;44.530;18.620;2022-11-06T16:29:31;10.30;99.90
36416;DHT22;22447;44.530;18.620;2022-11-06T16:32:03;10.30;99.90
36416;DHT22;22447;44.530;18.620;2022-11-06T16:37:03;10.30;99.90
36416;DHT22;22447;44.530;18.620;2022-11-06T16:39:40;10.30;99.90
36416;DHT22;22447;44.530;18.620;2022-11-06T16:49:32;10.30;99.90
36416;DHT22;22447;44.530;18.620;2022-11-06T16:51:58;10.40;99.90
36416;DHT22;22447;44.530;18.620;2022-11-06T16:54:25;10.50;99.90
36416;DHT22;22447;44.530;18.620;2022-11-06T16:57:09;10.50;99.90
36416;DHT22;22447;44.530;18.620;2022-11-06T16:59:38;10.40;99.90
36416;DHT22;22447;44.530;18.620;2022-11-06T17:02:04;10.40;99.90
36416;DHT22;22447;44.530;18.620;2022-11-06T17:04:30;10.40;99.90
36416;DHT22;22447;44.530;18.620;2022-11-06T17:06:56;10.30;99.90
36416;DHT22;22447;44.530;18.620;2022-11-06T17:09:32;10.20;99.90
36416;DHT22;22447;44.530;18.620;2022-11-06T17:12:00;10.20;99.90
36416;DHT22;22447;44.530;18.620;2022-11-06T17:14:27;10.20;99.90
36416;DHT22;22447;44.530;18.620;2022-11-06T17:16:58;10.10;99.90
36416;DHT22;22447;44.530;18.620;2022-11-06T17:19:26;10.20;99.90
36416;DHT22;22447;44.530;18.620;2022-11-06T17:21:52;10.20;99.90
36416;DHT22;22447;44.530;18.620;2022-11-06T17:24:18;10.20;99.90
36416;DHT22;22447;44.530;18.620;2022-11-06T17:26:47;10.20;99.90
36416;DHT22;22447;44.530;18.620;2022-11-06T17:29:13;10.20;99.90
36416;DHT22;22447;44.530;18.620;2022-11-06T17:31:39;10.20;99.90
36416;DHT22;22447;44.530;18.620;2022-11-06T17:34:05;10.20;99.90
36416;DHT22;22447;44.530;18.620;2022-11-06T17:36:31;10.20;99.90
36416;DHT22;22447;44.530;18.620;2022-11-06T17:38:58;10.30;99.90
36416;DHT22;22447;44.530;18.620;2022-11-06T17:41:25;10.20;99.90
36416;DHT22;22447;44.530;18.620;2022-11-06T17:43:58;10.20;99.90
36416;DHT22;22447;44.530;18.620;2022-11-06T17:46:26;10.20;99.90
36416;DHT22;22447;44.530;18.620;2022-11-06T17:48:52;10.20;99.90
36416;DHT22;22447;44.530;18.620;2022-11-06T17:51:19;10.20;99.90
36416;DHT22;22447;44.530;18.620;2022-11-06T17:54:04;10.20;99.90
36416;DHT22;22447;44.530;18.620;2022-11-06T17:56:30;10.10;99.90
36416;DHT22;22447;44.530;18.620;2022-11-06T17:58:55;10.10;99.90
36416;DHT22;22447;44.530;18.620;2022-11-06T18:01:21;10.20;99.90
36416;DHT22;22447;44.530;18.620;2022-11-06T18:03:47;10.30;99.90
36416;DHT22;22447;44.530;18.620;2022-11-06T18:06:14;10.40;99.90
36416;DHT22;22447;44.530;18.620;2022-11-06T18:08:41;10.50;99.90
36416;DHT22;22447;44.530;18.620;2022-11-06T18:11:07;10.50;99.90
36416;DHT22;22447;44.530;18.620;2022-11-06T18:13:35;10.50;99.90
36416;DHT22;22447;44.530;18.620;2022-11-06T18:16:04;10.60;99.90
36416;DHT22;22447;44.530;18.620;2022-11-06T18:18:38;10.60;99.90
36416;DHT22;22447;44.530;18.620;2022-11-06T18:21:06;10.40;99.90
36416;DHT22;22447;44.530;18.620;2022-11-06T18:23:33;10.50;99.90
36416;DHT22;22447;44.530;18.620;2022-11-06T18:25:59;10.60;99.90
36416;DHT22;22447;44.530;18.620;2022-11-06T18:28:25;10.60;99.90
36416;DHT22;22447;44.530;18.620;2022-11-06T18:30:51;10.50;99.90
36416;DHT22;22447;44.530;18.620;2022-11-06T18:33:18;10.30;99.90